Time;durP1;ratioP1;P1;durP2;ratioP2;P2;SDS_P1;SDS_P2;PMS_P1;PMS_P2;Temp;Humidity;BMP_temperature;BMP_pressure;BME280_temperature;BME280_humidity;BME280_pressure;Samples;Min_cycle;Max_cycle;Signal;HPM_P1;HPM_P2
2023/12/04 00:01:21;;;;;;;22.52;15.77;;;;;;;-1.25;75.38;101757.31;5090622;28;20447;-68
2023/12/04 00:03:47;;;;;;;24.65;15.85;;;;;;;-1.24;75.44;101761.63;5090579;28;20028;-68
2023/12/04 00:06:12;;;;;;;22.73;15.57;;;;;;;-1.25;75.36;101748.53;5072788;28;20115;-68
2023/12/04 00:08:38;;;;;;;25.83;15.43;;;;;;;-1.21;75.21;101761.44;5089476;28;20067;-68
2023/12/04 00:11:05;;;;;;;27.02;15.77;;;;;;;-1.21;75.56;101764.09;5090587;28;20137;-68
2023/12/04 00:13:30;;;;;;;22.27;14.70;;;;;;;-1.15;75.40;101764.66;5098663;28;20032;-68
2023/12/04 00:15:56;;;;;;;23.33;15.02;;;;;;;-1.29;75.34;101761.09;5087721;28;20440;-68
2023/12/04 00:18:21;;;;;;;26.83;14.43;;;;;;;-1.22;75.31;101758.91;5087454;28;20042;-70
2023/12/04 00:20:46;;;;;;;24.25;15.45;;;;;;;-1.53;76.10;101762.66;5089685;28;20027;-68
2023/12/04 00:23:12;;;;;;;22.60;14.75;;;;;;;-1.55;76.48;101757.50;5089741;28;20502;-68
2023/12/04 00:25:37;;;;;;;20.50;14.10;;;;;;;-1.32;75.92;101749.91;5088624;28;20530;-68
2023/12/04 00:28:03;;;;;;;24.15;14.32;;;;;;;-1.12;75.60;101756.53;5085873;28;20028;-68
2023/12/04 00:30:28;;;;;;;23.63;14.57;;;;;;;-1.43;75.34;101724.16;5110467;28;20031;-69
2023/12/04 00:32:53;;;;;;;23.55;14.10;;;;;;;-1.39;75.74;101751.22;5109284;28;20027;-68
2023/12/04 00:35:19;;;;;;;21.02;13.73;;;;;;;-1.33;75.98;101756.09;5108745;28;20095;-68
2023/12/04 00:37:44;;;;;;;20.58;13.48;;;;;;;-1.16;75.53;101765.56;5110297;28;20035;-69
2023/12/04 00:40:10;;;;;;;20.02;13.48;;;;;;;-1.14;75.40;101763.69;5093104;28;20098;-68
2023/12/04 00:42:35;;;;;;;21.25;13.35;;;;;;;-1.07;75.58;101764.97;5092032;28;20028;-68
2023/12/04 00:45:02;;;;;;;18.98;13.77;;;;;;;-1.00;75.09;101760.97;5089953;28;20564;-67
2023/12/04 00:47:28;;;;;;;22.67;14.27;;;;;;;-1.02;75.28;101766.38;5088994;28;20032;-68
2023/12/04 00:49:53;;;;;;;20.60;13.90;;;;;;;-0.92;74.84;101758.69;5090389;28;20036;-69
2023/12/04 00:52:18;;;;;;;22.65;14.18;;;;;;;-0.85;74.87;101757.34;5090068;28;20491;-68
2023/12/04 00:54:44;;;;;;;22.40;14.23;;;;;;;-0.84;74.68;101758.19;5090032;28;20165;-69
2023/12/04 00:57:09;;;;;;;21.73;13.80;;;;;;;-0.83;74.69;101757.22;5090744;28;20036;-68
2023/12/04 00:59:35;;;;;;;21.52;13.30;;;;;;;-1.01;74.83;101731.09;5038427;28;1457306;-68
2023/12/04 01:02:00;;;;;;;22.52;14.02;;;;;;;-0.88;74.87;101756.69;5091270;28;20035;-69
2023/12/04 01:04:26;;;;;;;25.55;14.38;;;;;;;-0.92;74.64;101750.78;5091691;28;20470;-69
2023/12/04 01:06:51;;;;;;;20.77;14.00;;;;;;;-1.05;74.80;101728.75;5090783;28;20031;-68
2023/12/04 01:09:17;;;;;;;23.73;14.40;;;;;;;-0.93;74.52;101748.22;5089008;28;20051;-68
2023/12/04 01:11:42;;;;;;;19.40;14.05;;;;;;;-0.86;74.95;101760.94;5090353;28;20123;-68
2023/12/04 01:14:08;;;;;;;21.67;14.10;;;;;;;-0.96;74.84;101729.00;5081363;28;20033;-69
2023/12/04 01:16:33;;;;;;;21.08;13.90;;;;;;;-0.81;74.70;101756.19;5086621;28;20561;-68
2023/12/04 01:18:59;;;;;;;22.45;13.63;;;;;;;-0.80;74.82;101752.56;5110790;28;20437;-69
2023/12/04 01:21:24;;;;;;;21.60;14.25;;;;;;;-0.77;74.76;101759.47;5109348;28;20051;-69
2023/12/04 01:23:49;;;;;;;22.13;14.02;;;;;;;-0.76;74.82;101755.91;5109329;28;20126;-68
2023/12/04 01:26:14;;;;;;;21.73;14.40;;;;;;;-0.67;75.13;101752.63;5109417;28;20486;-69
2023/12/04 01:28:40;;;;;;;21.75;13.82;;;;;;;-0.77;74.66;101755.03;5109431;28;20023;-68
2023/12/04 01:31:06;;;;;;;20.10;13.63;;;;;;;-0.98;74.69;101757.31;5110894;28;20184;-68
2023/12/04 01:33:31;;;;;;;22.38;13.63;;;;;;;-1.06;75.36;101756.09;5109761;28;20035;-68
2023/12/04 01:35:57;;;;;;;20.20;13.98;;;;;;;-0.91;75.48;101743.69;5116202;28;20038;-69
2023/12/04 01:38:22;;;;;;;20.35;13.27;;;;;;;-0.92;74.91;101750.78;5116515;28;20122;-68
2023/12/04 01:40:47;;;;;;;21.73;13.85;;;;;;;-1.32;75.51;101729.63;5106703;28;20077;-68
2023/12/04 01:43:13;;;;;;;21.05;13.13;;;;;;;-1.19;75.75;101741.06;5089365;28;20047;-68
2023/12/04 01:45:38;;;;;;;19.45;13.25;;;;;;;-1.07;75.54;101743.84;5078306;28;20545;-69
2023/12/04 01:48:06;;;;;;;21.17;13.55;;;;;;;-0.97;75.54;101742.28;5069074;28;20028;-68
2023/12/04 01:50:33;;;;;;;18.50;13.20;;;;;;;-1.31;76.09;101741.03;5070177;28;20037;-68
2023/12/04 01:52:59;;;;;;;20.92;13.10;;;;;;;-1.30;76.27;101735.63;5069464;28;20032;-69
2023/12/04 01:55:24;;;;;;;19.83;13.18;;;;;;;-1.11;76.07;101737.09;5068879;28;20036;-68
2023/12/04 01:57:49;;;;;;;19.08;12.82;;;;;;;-1.01;75.24;101725.81;5068968;28;20040;-68
2023/12/04 02:00:16;;;;;;;18.80;11.98;;;;;;;-1.14;75.18;101695.88;5070966;28;20048;-68
2023/12/04 02:02:42;;;;;;;16.50;10.82;;;;;;;-1.02;75.49;101713.56;5071892;28;20105;-68
2023/12/04 02:05:11;;;;;;;15.50;10.15;;;;;;;-0.95;75.52;101714.00;5072766;28;20615;-68
2023/12/04 02:07:36;;;;;;;15.52;9.50;;;;;;;-0.93;75.20;101716.50;5055208;28;20027;-68
2023/12/04 02:10:03;;;;;;;14.77;8.90;;;;;;;-1.00;75.00;101697.59;5073194;28;20490;-68
2023/12/04 02:12:29;;;;;;;12.18;7.65;;;;;;;-0.99;75.16;101708.06;5072768;28;20121;-69
2023/12/04 02:14:54;;;;;;;11.82;7.88;;;;;;;-1.02;75.44;101708.28;5071659;28;20032;-67
2023/12/04 02:17:20;;;;;;;13.00;7.82;;;;;;;-0.96;75.29;101710.50;5071408;28;20029;-68
2023/12/04 02:19:46;;;;;;;13.02;7.75;;;;;;;-0.99;75.45;101715.16;5071086;28;20044;-69
2023/12/04 02:22:11;;;;;;;13.38;8.30;;;;;;;-1.05;75.89;101708.47;5072536;28;20479;-68
2023/12/04 02:24:37;;;;;;;10.63;6.93;;;;;;;-1.07;76.04;101706.88;5072514;28;20028;-69
2023/12/04 02:27:20;;;;;;;10.05;6.53;;;;;;;-1.02;75.90;101704.78;5072842;28;20540;-68
2023/12/04 02:29:56;;;;;;;10.73;7.00;;;;;;;-1.13;76.05;101689.63;5073119;28;20032;-69
2023/12/04 02:32:23;;;;;;;9.18;6.07;;;;;;;-0.93;75.78;101705.94;5072317;28;20034;-69
2023/12/04 02:34:50;;;;;;;8.18;5.97;;;;;;;-0.88;75.50;101709.16;5071510;28;20066;-69
2023/12/04 02:37:17;;;;;;;9.02;6.55;;;;;;;-0.86;75.15;101704.59;5071440;28;20028;-68
2023/12/04 02:39:43;;;;;;;10.85;6.30;;;;;;;-0.83;75.04;101701.72;5073012;28;20525;-67
2023/12/04 02:42:08;;;;;;;7.90;5.68;;;;;;;-0.76;75.31;101708.31;5073255;28;20032;-68
2023/12/04 02:44:34;;;;;;;8.57;6.05;;;;;;;-0.73;74.75;101697.53;5072137;28;20024;-69
2023/12/04 02:46:59;;;;;;;8.75;5.65;;;;;;;-0.79;75.28;101705.88;5072204;28;20028;-68
2023/12/04 02:49:25;;;;;;;7.82;5.45;;;;;;;-0.80;75.30;101701.53;5072441;28;20035;-69
2023/12/04 02:51:50;;;;;;;9.70;5.63;;;;;;;-0.67;75.16;101698.91;5071036;28;20077;-69
2023/12/04 02:54:16;;;;;;;8.52;5.82;;;;;;;-0.93;75.08;101704.16;5070958;28;20038;-68
2023/12/04 02:56:41;;;;;;;10.77;7.50;;;;;;;-1.26;76.11;101699.31;5072294;28;20276;-69
2023/12/04 02:59:06;;;;;;;10.73;7.60;;;;;;;-1.20;76.12;101699.75;5070558;28;20550;-69
2023/12/04 03:01:32;;;;;;;10.80;7.22;;;;;;;-1.11;76.35;101703.59;5071021;28;20032;-68
2023/12/04 03:03:57;;;;;;;9.98;6.20;;;;;;;-1.08;75.82;101699.91;5070708;28;20039;-69
2023/12/04 03:06:22;;;;;;;8.27;5.95;;;;;;;-1.27;76.33;101697.63;5072186;28;20071;-69
2023/12/04 03:08:48;;;;;;;9.43;6.13;;;;;;;-0.98;76.03;101704.47;5072162;28;20107;-68
2023/12/04 03:11:13;;;;;;;10.50;6.50;;;;;;;-1.28;76.07;101670.38;5070888;28;20093;-68
2023/12/04 03:13:39;;;;;;;7.90;5.60;;;;;;;-0.93;75.47;101705.94;5069744;28;20055;-69
2023/12/04 03:16:04;;;;;;;7.63;5.75;;;;;;;-0.82;75.21;101688.44;5070558;28;20025;-68
2023/12/04 03:18:31;;;;;;;8.75;6.03;;;;;;;-0.70;74.97;101694.66;5071764;28;20581;-68
2023/12/04 03:20:56;;;;;;;9.02;5.95;;;;;;;-0.56;74.82;101699.88;5070205;28;20118;-69
2023/12/04 03:23:21;;;;;;;9.50;5.95;;;;;;;-0.83;74.70;101693.81;5071895;28;20116;-68
2023/12/04 03:25:47;;;;;;;11.20;5.85;;;;;;;-0.82;75.03;101700.81;5070323;28;20560;-68
2023/12/04 03:28:15;;;;;;;7.60;5.57;;;;;;;-0.84;75.05;101695.59;5071243;28;20395;-68
2023/12/04 03:30:43;;;;;;;8.60;6.18;;;;;;;-0.87;74.93;101682.59;5053925;28;20032;-69
2023/12/04 03:33:09;;;;;;;11.68;6.22;;;;;;;-0.63;74.59;101689.81;5070952;28;20422;-68
2023/12/04 03:35:34;;;;;;;8.05;5.70;;;;;;;-0.83;75.40;101691.16;5070559;28;20039;-68
2023/12/04 03:37:59;;;;;;;8.32;5.25;;;;;;;-0.97;75.50;101681.53;5070221;28;20873;-68
2023/12/04 03:40:25;;;;;;;7.25;5.47;;;;;;;-1.12;75.80;101670.22;5071446;28;20124;-69
2023/12/04 03:42:50;;;;;;;9.45;6.20;;;;;;;-1.19;76.50;101684.78;5053273;28;20115;-68
2023/12/04 03:45:15;;;;;;;8.30;6.32;;;;;;;-1.00;76.12;101682.56;5069996;28;20063;-68
2023/12/04 03:47:41;;;;;;;10.07;6.22;;;;;;;-0.85;75.97;101683.34;5071182;28;20039;-68
2023/12/04 03:50:06;;;;;;;9.85;6.50;;;;;;;-0.76;75.63;101685.38;5070663;28;20119;-69
2023/12/04 03:52:32;;;;;;;9.98;6.55;;;;;;;-0.60;74.79;101686.97;5069634;28;20059;-68
2023/12/04 03:54:57;;;;;;;9.02;6.70;;;;;;;-0.54;74.57;101684.75;5036154;28;20507;-68
2023/12/04 03:57:23;;;;;;;10.68;6.43;;;;;;;-0.44;74.59;101681.47;5052691;28;20028;-68
2023/12/04 03:59:48;;;;;;;9.55;6.70;;;;;;;-0.35;74.23;101681.69;5052626;28;20462;-68
2023/12/04 04:02:13;;;;;;;10.45;6.43;;;;;;;-0.44;74.13;101677.03;5052475;28;20394;-68
2023/12/04 04:04:39;;;;;;;9.23;6.32;;;;;;;-0.49;74.32;101673.88;5069355;28;20112;-68
2023/12/04 04:07:05;;;;;;;9.35;6.30;;;;;;;-0.60;74.59;101666.66;5069354;28;20051;-68
2023/12/04 04:09:30;;;;;;;8.90;6.38;;;;;;;-0.52;74.67;101664.34;5070710;28;20502;-68
2023/12/04 04:11:56;;;;;;;12.38;7.53;;;;;;;-0.51;74.55;101667.84;5070677;28;20078;-68
2023/12/04 04:14:23;;;;;;;10.35;7.00;;;;;;;-0.41;74.44;101662.75;5068715;28;20038;-68
2023/12/04 04:16:48;;;;;;;12.75;8.07;;;;;;;-0.31;74.46;101671.72;5069926;28;20032;-69
2023/12/04 04:19:13;;;;;;;16.17;8.40;;;;;;;-0.25;74.09;101672.16;5070466;28;20474;-68
2023/12/04 04:21:40;;;;;;;11.13;7.45;;;;;;;-0.33;74.28;101670.97;5070650;28;20119;-69
2023/12/04 04:24:06;;;;;;;10.13;7.10;;;;;;;-0.22;74.15;101673.75;5071044;28;20059;-68
2023/12/04 04:26:31;;;;;;;11.35;7.60;;;;;;;-0.15;74.10;101674.16;5071797;28;20463;-68
2023/12/04 04:28:58;;;;;;;8.85;5.93;;;;;;;-0.15;73.97;101669.69;5053271;28;20028;-69
2023/12/04 04:31:23;;;;;;;7.43;5.55;;;;;;;-0.35;74.13;101671.09;5071339;28;20037;-68
2023/12/04 04:33:48;;;;;;;7.53;5.65;;;;;;;-0.14;74.23;101673.19;5069420;28;20380;-69
2023/12/04 04:36:13;;;;;;;9.02;6.13;;;;;;;-0.05;74.01;101678.69;5070373;28;20468;-69
2023/12/04 04:38:40;;;;;;;8.85;5.63;;;;;;;-0.08;73.55;101657.72;5071020;28;20067;-69
2023/12/04 04:41:06;;;;;;;9.30;6.30;;;;;;;-0.08;73.68;101667.47;5069365;28;20027;-69
2023/12/04 04:43:31;;;;;;;10.05;5.78;;;;;;;-0.11;74.04;101657.94;5052325;28;20033;-69
2023/12/04 04:45:56;;;;;;;8.45;5.88;;;;;;;-0.21;74.17;101667.50;5070434;28;20104;-68
2023/12/04 04:48:23;;;;;;;8.25;6.18;;;;;;;-0.09;73.85;101671.06;5069895;28;20104;-69
2023/12/04 04:50:48;;;;;;;8.05;5.80;;;;;;;-0.04;73.98;101672.41;5070644;28;20039;-69
2023/12/04 04:53:14;;;;;;;7.88;6.07;;;;;;;-0.03;74.04;101670.66;5069741;28;20056;-68
2023/12/04 04:55:39;;;;;;;9.05;6.20;;;;;;;-0.02;74.20;101672.31;5068509;28;20106;-68
2023/12/04 04:58:05;;;;;;;8.45;5.50;;;;;;;-0.03;74.24;101674.13;5069876;28;20032;-68
2023/12/04 05:00:30;;;;;;;10.68;6.50;;;;;;;-0.08;74.08;101684.19;5069312;28;20037;-69
2023/12/04 05:02:55;;;;;;;10.10;5.80;;;;;;;-0.16;74.82;101680.41;5052411;28;20066;-69
2023/12/04 05:05:21;;;;;;;10.07;5.88;;;;;;;-0.15;74.92;101682.09;5076126;28;20044;-69
2023/12/04 05:07:47;;;;;;;6.95;5.32;;;;;;;-0.16;74.50;101669.81;5074351;28;20093;-69
2023/12/04 05:10:12;;;;;;;6.78;5.20;;;;;;;-0.19;74.97;101670.88;5070097;28;20028;-68
2023/12/04 05:12:37;;;;;;;7.47;5.30;;;;;;;-0.31;74.61;101642.66;5069242;28;20032;-69
2023/12/04 05:15:03;;;;;;;7.68;4.63;;;;;;;-0.12;74.47;101672.13;5070436;28;20164;-69
2023/12/04 05:17:29;;;;;;;8.07;4.90;;;;;;;-0.07;74.62;101674.44;5070212;28;20119;-69
2023/12/04 05:19:54;;;;;;;6.65;4.75;;;;;;;-0.17;74.65;101678.69;5067089;28;20439;-68
2023/12/04 05:22:20;;;;;;;9.27;5.45;;;;;;;-0.24;74.80;101671.19;5068046;28;20124;-69
2023/12/04 05:24:45;;;;;;;6.85;5.25;;;;;;;-0.20;74.17;101663.03;5070080;28;20517;-68
2023/12/04 05:27:10;;;;;;;8.57;5.38;;;;;;;-0.15;74.41;101664.41;5068931;28;20024;-67
2023/12/04 05:29:36;;;;;;;8.02;5.30;;;;;;;-0.13;74.35;101662.50;5069872;28;20082;-69
2023/12/04 05:32:01;;;;;;;11.73;5.40;;;;;;;-0.48;75.29;101657.88;5070071;28;20020;-69
2023/12/04 05:34:26;;;;;;;8.15;5.75;;;;;;;-0.53;75.71;101667.94;5071117;28;20032;-71
2023/12/04 05:36:52;;;;;;;8.38;5.68;;;;;;;-0.73;76.02;101668.44;5073536;28;20026;-68
2023/12/04 05:39:17;;;;;;;7.80;4.57;;;;;;;-0.80;77.17;101664.53;5073635;28;20116;-68
2023/12/04 05:41:42;;;;;;;8.07;5.07;;;;;;;-0.78;76.85;101670.56;5073561;28;20052;-68
2023/12/04 05:44:08;;;;;;;8.35;4.50;;;;;;;-0.71;76.81;101663.91;5073631;28;20037;-68
2023/12/04 05:46:33;;;;;;;7.30;4.65;;;;;;;-0.82;77.32;101663.81;5055779;28;20032;-68
2023/12/04 05:48:59;;;;;;;8.32;4.35;;;;;;;-0.64;77.21;101665.19;5073709;28;20048;-67
2023/12/04 05:51:24;;;;;;;8.82;4.57;;;;;;;-0.60;77.79;101665.81;5072301;28;20029;-68
2023/12/04 05:53:49;;;;;;;7.63;4.70;;;;;;;-0.74;78.32;101659.69;5091303;28;20024;-68
2023/12/04 05:56:15;;;;;;;8.57;4.15;;;;;;;-0.76;78.33;101660.75;5091087;28;20039;-68
2023/12/04 05:58:40;;;;;;;6.90;4.20;;;;;;;-0.74;78.59;101656.19;5091497;28;20044;-68
2023/12/04 06:01:06;;;;;;;8.25;4.00;;;;;;;-0.90;79.21;101658.19;5092479;28;20040;-68
2023/12/04 06:03:32;;;;;;;8.20;4.15;;;;;;;-0.76;79.46;101650.19;5091145;28;20506;-68
2023/12/04 06:05:57;;;;;;;8.40;4.25;;;;;;;-0.75;79.29;101658.00;5093531;28;20031;-68
2023/12/04 06:08:23;;;;;;;9.85;4.10;;;;;;;-0.83;79.48;101636.56;5092413;28;20023;-68
2023/12/04 06:10:48;;;;;;;5.45;4.18;;;;;;;-0.58;79.14;101663.94;5092332;28;20067;-68
2023/12/04 06:13:13;;;;;;;6.15;3.72;;;;;;;-0.91;80.80;101659.16;5090708;28;20034;-68
2023/12/04 06:15:39;;;;;;;6.22;3.92;;;;;;;-0.96;80.93;101630.38;5091101;28;20561;-68
2023/12/04 06:18:04;;;;;;;8.60;4.18;;;;;;;-0.99;82.00;101647.31;5091134;28;20103;-67
2023/12/04 06:20:30;;;;;;;5.68;3.95;;;;;;;-0.84;81.03;101655.97;5093331;28;20052;-68
2023/12/04 06:22:55;;;;;;;6.28;4.20;;;;;;;-1.09;81.74;101648.88;5091653;28;20126;-68
2023/12/04 06:25:21;;;;;;;5.45;4.35;;;;;;;-0.99;82.16;101660.50;5090910;28;20093;-68
2023/12/04 06:27:47;;;;;;;6.20;3.80;;;;;;;-1.26;83.16;101650.00;5092832;28;20099;-68
2023/12/04 06:30:13;;;;;;;6.47;3.90;;;;;;;-1.24;83.57;101648.09;5091983;28;20084;-67
2023/12/04 06:32:38;;;;;;;5.47;3.70;;;;;;;-1.23;84.18;101651.56;5093288;28;20572;-67
2023/12/04 06:35:04;;;;;;;5.15;3.65;;;;;;;-1.10;83.47;101649.81;5108110;28;20032;-68
2023/12/04 06:37:30;;;;;;;6.03;4.30;;;;;;;-1.06;83.45;101622.25;5093027;28;20036;-68
2023/12/04 06:40:01;;;;;;;7.10;5.10;;;;;;;-0.91;82.65;101651.22;5093023;28;20031;-69
2023/12/04 06:42:27;;;;;;;6.50;5.07;;;;;;;-1.18;84.16;101641.56;5092821;28;20038;-68
2023/12/04 06:44:53;;;;;;;7.03;4.60;;;;;;;-1.20;84.78;101644.28;5091364;28;20035;-68
2023/12/04 06:47:22;;;;;;;5.40;4.10;;;;;;;-1.14;84.48;101643.03;5091203;28;20058;-68
2023/12/04 06:49:48;;;;;;;5.22;3.60;;;;;;;-1.07;83.98;101635.56;5091522;28;20024;-68
2023/12/04 06:52:13;;;;;;;4.95;3.72;;;;;;;-1.04;83.61;101641.47;5091182;28;20551;-68
2023/12/04 06:54:38;;;;;;;5.20;3.83;;;;;;;-0.87;83.34;101632.41;5091351;28;20513;-68
2023/12/04 06:57:04;;;;;;;4.40;3.22;;;;;;;-0.76;82.35;101640.47;5074198;28;20035;-68
2023/12/04 06:59:29;;;;;;;5.38;3.80;;;;;;;-0.46;80.82;101639.28;5092453;28;20086;-68
2023/12/04 07:01:55;;;;;;;5.80;3.65;;;;;;;-0.44;80.66;101637.38;5091545;28;20390;-68
2023/12/04 07:04:21;;;;;;;4.47;3.47;;;;;;;-0.32;79.71;101646.25;5091131;28;20402;-68
2023/12/04 07:06:48;;;;;;;5.05;3.90;;;;;;;-0.19;78.86;101640.94;5092812;28;20478;-68
2023/12/04 07:09:13;;;;;;;5.30;4.15;;;;;;;-0.38;78.84;101628.16;5092809;28;20024;-67
2023/12/04 07:11:39;;;;;;;4.65;3.38;;;;;;;-0.69;80.32;101650.63;5092484;28;20047;-68
2023/12/04 07:14:04;;;;;;;5.10;3.80;;;;;;;-0.57;80.30;101645.31;5092482;28;20119;-68
2023/12/04 07:16:30;;;;;;;5.47;3.67;;;;;;;-0.89;81.53;101612.31;5092316;28;20566;-68
2023/12/04 07:18:55;;;;;;;5.03;3.60;;;;;;;-1.07;82.62;101630.28;5092024;28;20032;-70
2023/12/04 07:21:21;;;;;;;5.53;3.75;;;;;;;-0.91;83.38;101640.66;5093273;28;20024;-70
2023/12/04 07:23:46;;;;;;;7.90;3.92;;;;;;;-0.83;82.76;101644.47;5092454;28;20028;-69
2023/12/04 07:26:12;;;;;;;5.20;3.42;;;;;;;-0.99;82.89;101639.38;5090686;28;20036;-68
2023/12/04 07:28:38;;;;;;;6.20;3.90;;;;;;;-0.81;82.86;101639.06;5091844;28;20036;-67
2023/12/04 07:31:04;;;;;;;5.32;3.53;;;;;;;-0.66;81.74;101640.69;5092252;28;20027;-66
2023/12/04 07:33:29;;;;;;;7.32;3.60;;;;;;;-1.00;82.92;101634.19;5089901;28;20028;-67
2023/12/04 07:35:55;;;;;;;7.85;3.92;;;;;;;-0.95;83.12;101637.38;5091293;28;20074;-68
2023/12/04 07:38:21;;;;;;;5.85;3.70;;;;;;;-1.00;84.12;101637.66;5091506;28;20401;-68
2023/12/04 07:40:46;;;;;;;5.90;3.47;;;;;;;-0.91;83.14;101633.56;5089958;28;20028;-67
2023/12/04 07:43:14;;;;;;;8.73;5.05;;;;;;;-0.93;82.37;101602.91;5091442;28;20024;-70
2023/12/04 07:45:39;;;;;;;6.18;4.15;;;;;;;-0.59;81.77;101638.44;5091799;28;20028;-68
2023/12/04 07:48:05;;;;;;;5.28;4.38;;;;;;;-0.79;82.61;101634.53;5091287;28;20074;-69
2023/12/04 07:50:30;;;;;;;6.15;4.15;;;;;;;-0.59;82.26;101638.44;5091210;28;20042;-69
2023/12/04 07:52:55;;;;;;;5.57;4.07;;;;;;;-0.79;82.92;101639.81;5091449;28;20030;-69
2023/12/04 07:55:21;;;;;;;6.88;4.63;;;;;;;-0.63;82.70;101644.88;5091083;28;20509;-69
2023/12/04 07:57:47;;;;;;;5.15;3.65;;;;;;;-0.56;82.37;101636.44;5090965;28;20032;-69
2023/12/04 08:00:13;;;;;;;5.78;3.97;;;;;;;-0.52;81.69;101629.97;5091483;28;20131;-69
2023/12/04 08:02:39;;;;;;;7.60;4.53;;;;;;;-0.32;80.86;101641.81;5091542;28;20071;-68
2023/12/04 08:05:04;;;;;;;5.72;4.30;;;;;;;-0.30;80.53;101624.03;5090193;28;20471;-70
2023/12/04 08:07:30;;;;;;;6.03;4.45;;;;;;;-0.22;80.46;101644.66;5091439;28;20439;-68
2023/12/04 08:09:55;;;;;;;5.30;4.05;;;;;;;-0.54;81.58;101639.81;5091918;28;20034;-69
2023/12/04 08:12:21;;;;;;;6.93;4.40;;;;;;;-0.54;82.68;101645.09;5091056;28;20055;-69
2023/12/04 08:14:46;;;;;;;6.85;4.57;;;;;;;-0.44;82.15;101644.47;5090221;28;20063;-68
2023/12/04 08:17:12;;;;;;;8.43;4.60;;;;;;;-0.27;81.63;101629.09;5065115;28;20082;-69
2023/12/04 08:19:38;;;;;;;7.30;4.30;;;;;;;-0.24;81.04;101625.38;5089990;28;20043;-68
2023/12/04 08:22:04;;;;;;;5.72;3.92;;;;;;;0.06;80.10;101642.66;5089906;28;20035;-68
2023/12/04 08:24:29;;;;;;;5.75;3.80;;;;;;;0.11;79.54;101633.44;5089941;28;20028;-69
2023/12/04 08:26:56;;;;;;;5.80;3.40;;;;;;;0.16;79.24;101638.41;5089623;28;20526;-68
2023/12/04 08:29:22;;;;;;;4.50;3.47;;;;;;;0.20;79.16;101637.25;5072791;28;20028;-69
2023/12/04 08:31:47;;;;;;;5.45;3.90;;;;;;;0.16;78.93;101623.34;5089850;28;20023;-69
2023/12/04 08:34:13;;;;;;;5.90;3.58;;;;;;;0.40;78.65;101636.63;5089802;28;20489;-69
2023/12/04 08:36:38;;;;;;;6.45;4.18;;;;;;;0.50;78.19;101643.88;5090783;28;20044;-69
2023/12/04 08:39:04;;;;;;;7.30;3.78;;;;;;;0.54;78.19;101648.00;5090922;28;20027;-68
2023/12/04 08:41:30;;;;;;;6.13;3.45;;;;;;;0.59;77.79;101638.75;5090810;28;20036;-68
2023/12/04 08:43:55;;;;;;;4.82;3.50;;;;;;;0.63;77.73;101634.06;5090862;28;20035;-69
2023/12/04 08:46:21;;;;;;;8.05;3.85;;;;;;;0.60;77.84;101627.22;5090859;28;20028;-69
2023/12/04 08:48:46;;;;;;;6.25;3.65;;;;;;;0.49;77.82;101611.25;5090808;28;20023;-68
2023/12/04 08:51:16;;;;;;;7.10;3.80;;;;;;;0.67;77.78;101635.53;5089417;28;20080;-69
2023/12/04 08:53:42;;;;;;;6.45;3.45;;;;;;;0.77;77.87;101641.84;5090831;28;20103;-69
2023/12/04 08:56:08;;;;;;;7.70;3.35;;;;;;;0.68;77.87;101626.63;5090566;28;20179;-68
2023/12/04 08:58:33;;;;;;;8.52;3.70;;;;;;;0.67;77.78;101619.66;5089489;28;20048;-68
2023/12/04 09:00:59;;;;;;;7.88;3.97;;;;;;;0.86;77.92;101643.81;5089688;28;20039;-67
2023/12/04 09:03:24;;;;;;;11.00;3.97;;;;;;;0.87;78.01;101640.19;5072515;28;20084;-68
2023/12/04 09:05:51;;;;;;;13.18;4.07;;;;;;;0.91;77.98;101640.78;5091157;28;20058;-68
2023/12/04 09:08:17;;;;;;;13.18;3.35;;;;;;;0.82;77.75;101625.59;5089617;28;20399;-67
2023/12/04 09:10:43;;;;;;;8.65;3.70;;;;;;;1.02;77.76;101640.81;5094782;28;20023;-68
2023/12/04 09:13:08;;;;;;;8.80;3.90;;;;;;;1.06;77.58;101638.78;5076699;28;20024;-67
2023/12/04 09:15:33;;;;;;;7.28;3.58;;;;;;;1.03;77.76;101633.72;5094428;28;20059;-68
2023/12/04 09:17:59;;;;;;;6.85;4.15;;;;;;;1.13;77.46;101640.03;5093184;28;20040;-67
2023/12/04 09:20:25;;;;;;;5.72;3.85;;;;;;;1.20;77.80;101643.03;5092954;28;20028;-68
2023/12/04 09:22:51;;;;;;;4.45;3.15;;;;;;;1.23;77.99;101635.69;5094431;28;20028;-69
2023/12/04 09:25:16;;;;;;;6.00;3.33;;;;;;;1.28;77.90;101637.97;5094116;28;20040;-68
2023/12/04 09:27:42;;;;;;;5.57;3.50;;;;;;;1.35;77.84;101642.69;5093223;28;20063;-68
2023/12/04 09:30:08;;;;;;;5.32;3.75;;;;;;;1.46;77.88;101641.88;5076320;28;20556;-68
2023/12/04 09:32:33;;;;;;;11.68;3.50;;;;;;;1.52;77.67;101644.03;5094036;28;20032;-68
2023/12/04 09:34:59;;;;;;;5.28;3.33;;;;;;;1.58;77.48;101646.19;5094123;28;20509;-68
2023/12/04 09:37:24;;;;;;;9.20;3.50;;;;;;;1.72;78.04;101636.31;5092715;28;20040;-68
2023/12/04 09:39:50;;;;;;;51.53;25.58;;;;;;;1.78;77.34;101647.28;5094085;28;20035;-68
2023/12/04 09:42:18;;;;;;;14.32;7.85;;;;;;;1.79;77.42;101638.38;5093248;28;20110;-68
2023/12/04 09:44:44;;;;;;;13.57;8.50;;;;;;;1.73;77.80;101641.50;5093247;28;20059;-68
2023/12/04 09:47:10;;;;;;;6.88;4.88;;;;;;;1.74;78.19;101645.84;5094723;28;20051;-68
2023/12/04 09:49:36;;;;;;;6.97;4.32;;;;;;;1.86;77.85;101639.56;5094355;28;20020;-68
2023/12/04 09:52:04;;;;;;;6.75;5.00;;;;;;;1.92;77.96;101640.91;5094410;28;20085;-68
2023/12/04 09:54:30;;;;;;;6.55;4.40;;;;;;;1.91;78.53;101631.22;5093041;28;20032;-68
2023/12/04 09:56:56;;;;;;;7.30;4.13;;;;;;;1.61;79.02;101600.88;5092931;28;20036;-68
2023/12/04 09:59:25;;;;;;;5.50;3.53;;;;;;;1.79;79.11;101638.38;5093741;28;20055;-69
2023/12/04 10:01:51;;;;;;;4.38;3.25;;;;;;;1.82;78.39;101638.13;5094095;28;20376;-67
2023/12/04 10:04:17;;;;;;;6.18;4.13;;;;;;;1.87;78.87;101635.09;5094562;28;20055;-69
2023/12/04 10:06:45;;;;;;;6.72;4.70;;;;;;;1.77;79.45;101642.94;5093986;28;20056;-69
2023/12/04 10:09:13;;;;;;;6.82;4.40;;;;;;;1.87;79.75;101641.25;5075951;28;20052;-69
2023/12/04 10:11:42;;;;;;;9.88;5.03;;;;;;;1.88;79.92;101637.63;5092987;28;20040;-68
2023/12/04 10:14:21;;;;;;;11.00;4.28;;;;;;;1.59;80.15;101641.72;5092129;28;20730;-69
2023/12/04 10:16:47;;;;;;;15.73;4.10;;;;;;;1.63;80.87;101637.91;5091207;28;20039;-68
2023/12/04 10:19:16;;;;;;;15.32;4.15;;;;;;;1.66;81.50;101637.66;5091310;28;20028;-68
2023/12/04 10:21:42;;;;;;;12.77;4.53;;;;;;;1.87;80.49;101638.59;5091808;28;20110;-68
2023/12/04 10:24:08;;;;;;;15.07;5.80;;;;;;;1.84;80.80;101638.84;5093252;28;20131;-68
2023/12/04 10:26:33;;;;;;;24.30;6.07;;;;;;;1.98;80.17;101643.03;5068340;28;20043;-70
2023/12/04 10:29:00;;;;;;;32.42;7.63;;;;;;;2.11;79.65;101622.50;5072746;28;20041;-68
2023/12/04 10:31:25;;;;;;;17.58;5.47;;;;;;;2.07;79.49;101639.66;5071727;28;20082;-68
2023/12/04 10:33:51;;;;;;;23.15;5.45;;;;;;;2.06;79.69;101637.97;5084388;28;20024;-68
2023/12/04 10:36:18;;;;;;;23.70;5.32;;;;;;;2.11;79.79;101638.44;5093196;28;20113;-69
2023/12/04 10:38:43;;;;;;;15.35;4.28;;;;;;;2.07;80.48;101636.16;5093612;28;20024;-69
2023/12/04 10:41:14;;;;;;;21.67;4.47;;;;;;;2.10;80.15;101602.25;5092641;28;20024;-69
2023/12/04 10:43:47;;;;;;;26.65;5.72;;;;;;;2.43;79.50;101636.81;5091831;28;20077;-69
2023/12/04 10:46:16;;;;;;;23.50;6.57;;;;;;;2.57;78.37;101628.53;5091053;28;20028;-68
2023/12/04 10:48:44;;;;;;;24.55;4.47;;;;;;;2.59;79.06;101626.59;5091598;28;20399;-68
2023/12/04 10:51:12;;;;;;;28.63;4.00;;;;;;;2.46;79.44;101626.78;5092990;28;20035;-69
2023/12/04 10:53:40;;;;;;;13.10;4.68;;;;;;;2.41;79.53;101615.66;5092663;28;20028;-69
2023/12/04 10:56:09;;;;;;;21.05;3.80;;;;;;;2.41;79.10;101604.19;5091927;28;20020;-71
2023/12/04 10:58:38;;;;;;;10.00;3.35;;;;;;;2.57;79.65;101629.38;5090938;28;20097;-70
2023/12/04 11:01:08;;;;;;;11.40;3.83;;;;;;;2.52;79.82;101626.28;5092457;28;20050;-71
2023/12/04 11:03:51;;;;;;;9.38;3.45;;;;;;;2.65;79.19;101625.22;5091176;28;20016;-71
2023/12/04 11:06:20;;;;;;;7.47;3.92;;;;;;;2.45;79.97;101625.09;5089966;28;20036;-70
2023/12/04 11:08:48;;;;;;;7.60;4.55;;;;;;;2.29;80.35;101627.31;5092142;28;20024;-71
2023/12/04 11:11:22;;;;;;;6.95;3.63;;;;;;;2.32;80.75;101627.06;5090765;28;20032;-70
2023/12/04 11:13:56;;;;;;;6.28;4.07;;;;;;;2.62;79.41;101626.34;5092674;28;20102;-71
2023/12/04 11:16:33;;;;;;;18.15;11.57;;;;;;;2.65;79.46;101636.72;5091135;28;20032;-70